»·PEaware :: SWA130 KMAF-KSAT

SWA130 :: KMAF-KSAT

FLIGHT INFORMATION

Flight Status: Arrived
Operator:
Southwest Airlines
More flights by this operator :: More flights under this callsign
Pilot: Justin M. (19723)
Aircraft: BOEING 737-800
(B738)
More flights by this aircraft type
Origin: KMAF Midland Intl
United States
Destination: KSAT San Antonio Intl
United States
More flights between these airports :: More routes between these airports
Route: +FUSCO JCT CSI CSI2
File this flight plan on PilotEdge
Remarks:
Altitude:
(Current/Filed)
27,000ft
Speed:
(Current/Filed)
450kts
Departed: 23-Apr-20 06:51 AM
Arrived: 23-Apr-20 07:37 AM
Distance/Time
Traveled:
241nm/0:46
Distance/Time
To Go:
Arrived

Flight Plot

Page will automatically refresh every two minutes.

Flight plan parsing failed; only flown route is shown


Map Options




Map Legend


Flown Route
Filed Route
Departure Airport
Arrival Airport
Navaid (VOR, NDB)
Fix

Horizontal Profiles

Position Reports

Time Latitude Longitude Heading Altitude Ground
Speed
23-Apr-20 06:32 31.937299 -102.206302 174 2881ft 0kts
23-Apr-20 06:33 31.937299 -102.206302 174 2881ft 0kts
23-Apr-20 06:34 31.937299 -102.206302 174 2881ft 0kts
23-Apr-20 06:35 31.937299 -102.206302 174 2881ft 0kts
23-Apr-20 06:36 31.937299 -102.206302 174 2881ft 0kts
23-Apr-20 06:37 31.937299 -102.206302 174 2881ft 0kts
23-Apr-20 06:38 31.937299 -102.206302 174 2881ft 0kts
23-Apr-20 06:39 31.937299 -102.206302 174 2881ft 0kts
23-Apr-20 06:40 31.937299 -102.206302 174 2881ft 0kts
23-Apr-20 06:41 31.937299 -102.206302 174 2881ft 0kts
23-Apr-20 06:42 31.937299 -102.206302 174 2881ft 0kts
23-Apr-20 06:43 31.937299 -102.206302 174 2881ft 0kts
23-Apr-20 06:44 31.937299 -102.206302 174 2881ft 0kts
23-Apr-20 06:45 31.937299 -102.206302 174 2881ft 0kts
23-Apr-20 06:46 31.937003 -102.206073 126 2881ft 6kts
23-Apr-20 06:47 31.933992 -102.204722 173 2881ft 14kts
23-Apr-20 06:48 31.933451 -102.204002 80 2881ft 0kts
23-Apr-20 06:49 31.933877 -102.202891 355 2881ft 0kts
23-Apr-20 06:50 31.958081 -102.205194 356 3225ft 173kts
23-Apr-20 06:51 32.005877 -102.216981 346 4840ft 246kts
23-Apr-20 06:52 32.077925 -102.237637 351 5344ft 284kts
23-Apr-20 06:53 32.112962 -102.218838 60 7538ft 278kts
23-Apr-20 06:54 32.096236 -102.148467 137 9941ft 297kts
23-Apr-20 06:55 32.023691 -102.083247 143 11849ft 346kts
23-Apr-20 06:56 31.945554 -102.013532 142 14657ft 361kts
23-Apr-20 06:57 31.863228 -101.938374 142 16671ft 395kts
23-Apr-20 06:58 31.773637 -101.858548 146 18906ft 411kts
23-Apr-20 06:59 31.681013 -101.777111 144 20790ft 421kts
23-Apr-20 07:00 31.586337 -101.692895 144 22257ft 433kts
23-Apr-20 07:01 31.488958 -101.606261 144 24096ft 446kts
23-Apr-20 07:02 31.388000 -101.516555 145 25566ft 463kts
23-Apr-20 07:03 31.283584 -101.423877 145 26936ft 479kts
23-Apr-20 07:04 31.185312 -101.313483 124 27027ft 500kts
23-Apr-20 07:05 31.120132 -101.169228 116 27027ft 502kts
23-Apr-20 07:06 31.062139 -101.021479 115 27027ft 501kts
23-Apr-20 07:07 31.005355 -100.872796 114 27027ft 502kts
23-Apr-20 07:08 30.948726 -100.723959 114 27027ft 501kts
23-Apr-20 07:09 30.892760 -100.577184 115 27026ft 502kts
23-Apr-20 07:10 30.836357 -100.429806 115 27027ft 503kts
23-Apr-20 07:11 30.783536 -100.292220 115 27027ft 505kts
23-Apr-20 07:12 30.725984 -100.142837 115 27025ft 507kts
23-Apr-20 07:13 30.666930 -99.990530 114 27027ft 515kts
23-Apr-20 07:14 30.602394 -99.844364 133 27027ft 488kts
23-Apr-20 07:15 30.504224 -99.738373 144 27027ft 486kts
23-Apr-20 07:16 30.400260 -99.641133 146 26468ft 473kts
23-Apr-20 07:17 30.297473 -99.548050 146 23800ft 465kts
23-Apr-20 07:18 30.197098 -99.458078 146 21295ft 450kts
23-Apr-20 07:19 30.099934 -99.371413 146 18819ft 432kts
23-Apr-20 07:20 30.006432 -99.288430 146 16402ft 413kts
23-Apr-20 07:21 29.923270 -99.201333 126 13977ft 403kts
23-Apr-20 07:22 29.875141 -99.087478 113 11804ft 385kts
23-Apr-20 07:23 29.825556 -98.983096 133 9944ft 359kts
23-Apr-20 07:24 29.762976 -98.907014 134 9746ft 304kts
23-Apr-20 07:25 29.705402 -98.837775 134 8744ft 296kts
23-Apr-20 07:26 29.648189 -98.770577 133 7741ft 291kts
23-Apr-20 07:27 29.591647 -98.705442 133 6740ft 285kts
23-Apr-20 07:28 29.535575 -98.642347 133 5749ft 277kts
23-Apr-20 07:29 29.482710 -98.584117 133 5348ft 245kts
23-Apr-20 07:30 29.434292 -98.531390 133 4979ft 245kts
23-Apr-20 07:31 29.392319 -98.474421 92 4040ft 243kts
23-Apr-20 07:32 29.419687 -98.418023 34 3539ft 179kts
23-Apr-20 07:33 29.467365 -98.407967 354 2358ft 176kts
23-Apr-20 07:35 29.506201 -98.438616 316 1436ft 158kts
23-Apr-20 07:36 29.533000 -98.472984 312 820ft 98kts
23-Apr-20 07:37 29.537581 -98.480209 217 819ft 0kts
23-Apr-20 07:38 29.537216 -98.480322 134 819ft 4kts
23-Apr-20 07:39 29.535256 -98.477801 130 819ft 9kts
23-Apr-20 07:40 29.533333 -98.475295 130 819ft 14kts
23-Apr-20 07:41 29.530414 -98.471449 144 819ft 10kts
23-Apr-20 07:42 29.525502 -98.469527 222 820ft 34kts
23-Apr-20 07:43 29.525256 -98.471652 324 820ft 0kts
23-Apr-20 07:44 29.525255 -98.471652 324 820ft 0kts
23-Apr-20 07:45 29.525255 -98.471652 324 820ft 0kts
23-Apr-20 07:46 29.525255 -98.471652 324 820ft 0kts
23-Apr-20 07:47 29.525255 -98.471652 324 820ft 0kts
23-Apr-20 07:48 29.525255 -98.471652 324 820ft 0kts
23-Apr-20 07:49 29.525255 -98.471652 324 820ft 0kts
23-Apr-20 07:50 29.525255 -98.471652 324 820ft 0kts
23-Apr-20 07:51 29.525255 -98.471652 324 820ft 0kts

Navigation Log

Ident Type
Flight plan parsing failed, navigation log unavailable